map of GIB home
GIB - Airport
Location
City:  Gibraltar, Gibraltar
Name:Gibraltar International Airport
Old (Alt.):North Front Airport, RAF Gibraltar
ICAO:LXGB
IATA:GIB

Details
Type:Airport (Aerodrome, Airfield)
Use:Public/Civil, Military, International (customs port of entry)
Latitude:3609'04"N (36.151219)
Longitude:520'59"W (-5.349663)
Datum:WGS 1984
Elevation:15 ft (5 m)
Variation:1.06W (WMM2015 magnetic declination)
0.11 annual change
Runways:1
Longest:6000 × 150 ft (1829 × 45.5 m), paved

Time
Time Zone:UTC+1 (DST+2)
Local Time:

Weather
METAR:LXGB 220450Z 00000KT CAVOK 20/18 Q1016

Related Locations
Nearby:
Farthest:NZKF: 12440 mi / 20020 km
Kaipara Flats, AUK, NZ

Find:

   beyond  
but within

Other Information
Maps:
NOTAMs:
Links:
Sources:

  
  • flag of Gibraltar
  

Sectional Chart

Flight Planning
at skyvector.com

Satellite Image

Google Maps Satellite view

 

Copyright © 2004-2018 Karl L. Swartz. All rights reserved.
The Great Circle Mapper name and logo are trademarks of the Great Circle Mapper.
All other trademarks mentioned herein belong to their respective owners.
Please see credits for attibutions and further copyright information.

  Follow gcmap on Facebook Follow gcmap on Twitter Follow gcmap on Google+ GCmap on LinkedIn

hCard Microformat

Geo Microformat